Map

Track Data

SID SEASON NUMBER BASIN SUBBASIN NAME ISO_TIME NATURE LAT LON WMO_WIND WMO_PRES WMO_AGENCY TRACK_TYPE DIST2LAND LANDFALL IFLAG USA_AGENCY USA_ATCF_ID USA_LAT USA_LON USA_RECORD USA_STATUS USA_WIND USA_PRES USA_SSHS USA_R34_NE USA_R34_SE USA_R34_SW USA_R34_NW USA_R50_NE USA_R50_SE USA_R50_SW USA_R50_NW USA_R64_NE USA_R64_SE USA_R64_SW USA_R64_NW USA_POCI USA_ROCI USA_RMW USA_EYE TOKYO_LAT TOKYO_LON TOKYO_GRADE TOKYO_WIND TOKYO_PRES TOKYO_R50_DIR TOKYO_R50_LONG TOKYO_R50_SHORT TOKYO_R30_DIR TOKYO_R30_LONG TOKYO_R30_SHORT TOKYO_LAND CMA_LAT CMA_LON CMA_CAT CMA_WIND CMA_PRES HKO_LAT HKO_LON HKO_CAT HKO_WIND HKO_PRES NEWDELHI_LAT NEWDELHI_LON NEWDELHI_GRADE NEWDELHI_WIND NEWDELHI_PRES NEWDELHI_CI NEWDELHI_DP NEWDELHI_POCI REUNION_LAT REUNION_LON REUNION_TYPE REUNION_WIND REUNION_PRES REUNION_TNUM REUNION_CI REUNION_RMW REUNION_R34_NE REUNION_R34_SE REUNION_R34_SW REUNION_R34_NW REUNION_R50_NE REUNION_R50_SE REUNION_R50_SW REUNION_R50_NW REUNION_R64_NE REUNION_R64_SE REUNION_R64_SW REUNION_R64_NW BOM_LAT BOM_LON BOM_TYPE BOM_WIND BOM_PRES BOM_TNUM BOM_CI BOM_RMW BOM_R34_NE BOM_R34_SE BOM_R34_SW BOM_R34_NW BOM_R50_NE BOM_R50_SE BOM_R50_SW BOM_R50_NW BOM_R64_NE BOM_R64_SE BOM_R64_SW BOM_R64_NW BOM_ROCI BOM_POCI BOM_EYE BOM_POS_METHOD BOM_PRES_METHOD NADI_LAT NADI_LON NADI_CAT NADI_WIND NADI_PRES WELLINGTON_LAT WELLINGTON_LON WELLINGTON_WIND WELLINGTON_PRES DS824_LAT DS824_LON DS824_STAGE DS824_WIND DS824_PRES TD9636_LAT TD9636_LON TD9636_STAGE TD9636_WIND TD9636_PRES TD9635_LAT TD9635_LON TD9635_WIND TD9635_PRES TD9635_ROCI NEUMANN_LAT NEUMANN_LON NEUMANN_CLASS NEUMANN_WIND NEUMANN_PRES MLC_LAT MLC_LON MLC_CLASS MLC_WIND MLC_PRES USA_GUST BOM_GUST BOM_GUST_PER REUNION_GUST REUNION_GUST_PER USA_SEAHGT USA_SEARAD_NE USA_SEARAD_SE USA_SEARAD_SW USA_SEARAD_NW STORM_SPEED STORM_DIR
1992289N09171 1992 112 WP MM BRIAN 1992-10-14 12:00:00 NR 8.50000 170.800 main 2194 2188 O_____________ jtwc_wp WP251992 8.50000 170.800 10 -1 9 307
1992289N09171 1992 112 WP MM BRIAN 1992-10-14 15:00:00 NR 8.75757 170.455 main 2207 2196 P_____________ WP251992 8.75757 170.455 12 -1 9 306
1992289N09171 1992 112 WP MM BRIAN 1992-10-14 18:00:00 NR 9.00000 170.100 main 2205 2200 O_____________ jtwc_wp WP251992 9.00000 170.100 15 -1 9 302
1992289N09171 1992 112 WP MM BRIAN 1992-10-14 21:00:00 NR 9.21492 169.722 main 2205 2200 P_____________ WP251992 9.21492 169.722 15 -1 9 297
1992289N09171 1992 112 WP MM BRIAN 1992-10-15 00:00:00 NR 9.40000 169.300 main 2205 2197 O_____________ jtwc_wp WP251992 9.40000 169.300 15 -1 10 292
1992289N09171 1992 112 WP MM BRIAN 1992-10-15 03:00:00 NR 9.56495 168.822 main 2203 2190 P_____________ WP251992 9.56495 168.822 15 -1 10 287
1992289N09171 1992 112 WP MM BRIAN 1992-10-15 06:00:00 NR 9.70000 168.300 main 2191 2181 O_____________ jtwc_wp WP251992 9.70000 168.300 15 -1 11 283
1992289N09171 1992 112 WP MM BRIAN 1992-10-15 09:00:00 NR 9.80741 167.765 main 2181 2169 P_____________ WP251992 9.80741 167.765 15 -1 11 280
1992289N09171 1992 112 WP MM BRIAN 1992-10-15 12:00:00 NR 9.90000 167.200 main 2169 2157 O_____________ jtwc_wp WP251992 9.90000 167.200 15 -1 12 280
1992289N09171 1992 112 WP MM BRIAN 1992-10-15 15:00:00 NR 10.0074 166.608 main 2157 2134 P_____________ WP251992 10.0074 166.608 17 -1 12 280
1992289N09171 1992 112 WP MM BRIAN 1992-10-15 18:00:00 NR 10.1000 166.000 main 2134 2103 O_____________ jtwc_wp WP251992 10.1000 166.000 20 -1 12 277
1992289N09171 1992 112 WP MM BRIAN 1992-10-15 21:00:00 NR 10.1574 165.400 main 2106 2065 P_____________ WP251992 10.1574 165.400 20 -1 12 275
1992289N09171 1992 112 WP MM BRIAN 1992-10-16 00:00:00 NR 10.2000 164.800 main 2065 2023 O_____________ jtwc_wp WP251992 10.2000 164.800 20 -1 12 275
1992289N09171 1992 112 WP MM BRIAN 1992-10-16 03:00:00 NR 10.2498 164.207 main 2023 1991 P_____________ WP251992 10.2498 164.207 20 -1 12 275
1992289N09171 1992 112 WP MM BRIAN 1992-10-16 06:00:00 NR 10.3000 163.600 main 1991 1951 O_____________ jtwc_wp WP251992 10.3000 163.600 20 -1 12 275
1992289N09171 1992 112 WP MM BRIAN 1992-10-16 09:00:00 NR 10.3499 162.957 main 1951 1912 P_____________ WP251992 10.3499 162.957 20 -1 13 274
1992289N09171 1992 112 WP MM BRIAN 1992-10-16 12:00:00 NR 10.4000 162.300 main 1912 1880 O_____________ jtwc_wp WP251992 10.4000 162.300 20 -1 13 275
1992289N09171 1992 112 WP MM BRIAN 1992-10-16 15:00:00 NR 10.4574 161.650 main 1883 1840 P_____________ WP251992 10.4574 161.650 22 -1 13 274
1992289N09171 1992 112 WP MM BRIAN 1992-10-16 18:00:00 NR 10.5000 161.000 main 1840 1804 O_____________ jtwc_wp WP251992 10.5000 161.000 25 -1 13 272
1992289N09171 1992 112 WP MM BRIAN 1992-10-16 21:00:00 NR 10.4999 160.350 main 1799 1779 P_____________ WP251992 10.4999 160.350 25 -1 12 275
1992289N09171 1992 112 WP MM BRIAN 1992-10-17 00:00:00 TS 10.6000 159.783 1004 tokyo main 1779 1736 OOO___________ jtwc_wp WP251992 10.5000 159.700 25 -1 11.0000 160.000 2 1004 0 0 0 10.6000 159.900 1 23 1004 12 272
1992289N09171 1992 112 WP MM BRIAN 1992-10-17 03:00:00 TS 10.5376 159.126 main 1731 1690 PPP___________ WP251992 10.5424 159.043 27 -1 10.6153 159.262 2 1004 0 0 10.4503 159.155 1 23 1004 13 262
1992289N09171 1992 112 WP MM BRIAN 1992-10-17 06:00:00 TS 10.4200 158.430 1004 tokyo main 1684 1640 OOO___________ jtwc_wp WP251992 10.6000 158.400 30 -1 10.3000 158.500 2 1004 0 0 0 10.3000 158.400 1 23 1004 14 261
1992289N09171 1992 112 WP MM BRIAN 1992-10-17 09:00:00 TS 10.3099 157.709 main 1640 1610 PPP___________ WP251992 10.6498 157.792 30 -1 10.1174 157.700 2 1004 0 0 10.1624 157.635 1 23 1004 14 267
1992289N09171 1992 112 WP MM BRIAN 1992-10-17 12:00:00 TS 10.3462 157.015 1004 tokyo main 1605 1589 OOOO__________ jtwc_wp WP251992 10.7000 157.200 30 -1 10.1000 156.900 2 1004 0 0 0 10.1000 156.900 1 23 1004 10.9000 157.200 TD 25 1000 13 276
1992289N09171 1992 112 WP MM BRIAN 1992-10-17 15:00:00 TS 10.4607 156.350 main 1599 1583 PPPP__________ WP251992 10.7499 156.600 32 -1 10.2625 156.113 2 1002 0 0 10.1549 156.213 1 26 1002 10.8902 156.600 TD 27 997 13 282
1992289N09171 1992 112 WP MM BRIAN 1992-10-17 18:00:00 TS 10.6067 155.733 35 1000 tokyo main 1582 1575 OOOO__________ jtwc_wp WP251992 10.8000 156.000 35 0 10.5000 155.400 3 35 1000 0 9 100 100 0 10.3000 155.600 1 29 1000 10.9000 156.000 TD 30 995 12 283
1992289N09171 1992 112 WP MM BRIAN 1992-10-17 21:00:00 TS 10.7317 155.167 main 1575 1570 PPPP__________ WP251992 10.8499 155.400 37 0 10.6574 154.790 3 35 1000 0 9 100 100 10.4773 155.077 1 29 1000 10.9424 155.400 TD 30 995 11 283
1992289N09171 1992 112 WP MM BRIAN 1992-10-18 00:00:00 TS 10.8500 154.625 35 1000 tokyo main 1577 1567 OOOO__________ jtwc_wp WP251992 10.9000 154.800 40 0 10.8000 154.300 3 35 1000 0 9 100 100 0 10.7000 154.600 1 29 1000 11.0000 154.800 TD 30 995 11 283
1992289N09171 1992 112 WP MM BRIAN 1992-10-18 03:00:00 TS 10.9805 154.098 main 1575 1568 PPPP__________ WP251992 10.9499 154.200 42 0 10.9574 153.912 3 37 998 0 9 110 110 10.9725 154.078 1 33 997 11.0424 154.200 TD 30 995 10 284
1992289N09171 1992 112 WP MM BRIAN 1992-10-18 06:00:00 TS 11.1000 153.600 40 996 tokyo main 1574 1568 OOOO__________ jtwc_wp WP251992 11.0000 153.600 45 0 11.1000 153.600 3 40 996 0 9 120 120 0 11.2000 153.600 2 38 995 11.1000 153.600 TD 30 995 10 282
1992289N09171 1992 112 WP MM BRIAN 1992-10-18 09:00:00 TS 11.1805 153.134 main 1576 1570 PPPP__________ WP251992 11.0424 152.992 45 0 11.2074 153.315 3 42 995 0 9 120 120 11.2723 153.235 2 38 995 11.1999 152.993 TD 32 992 9 279
1992289N09171 1992 112 WP MM BRIAN 1992-10-18 12:00:00 TS 11.2500 152.675 45 994 tokyo main 1581 1575 OOOO__________ jtwc_wp WP251992 11.1000 152.400 45 0 11.3000 153.000 3 45 994 0 9 120 120 0 11.3000 152.900 2 38 995 11.3000 152.400 TS 35 990 9 279
1992289N09171 1992 112 WP MM BRIAN 1992-10-18 15:00:00 TS 11.3318 152.197 main 1575 1574 PPPP__________ WP251992 11.1924 151.835 47 0 11.4000 152.580 3 45 994 0 9 120 120 11.3849 152.530 2 38 992 11.3499 151.842 TS 37 987 10 280
1992289N09171 1992 112 WP MM BRIAN 1992-10-18 18:00:00 TS 11.4250 151.700 45 994 tokyo main 1582 1580 OOOO__________ jtwc_wp WP251992 11.3000 151.300 50 0 11.5000 152.100 3 45 994 0 9 120 120 0 11.5000 152.100 2 38 990 11.4000 151.300 TS 40 985 10 282
1992289N09171 1992 112 WP MM BRIAN 1992-10-18 21:00:00 TS 11.5412 151.169 main 1580 1577 PPPP__________ WP251992 11.4074 150.778 50 0 11.6000 151.592 3 45 993 0 9 120 120 11.6576 151.558 2 43 987 11.4999 150.750 TS 42 985 11 282
1992289N09171 1992 112 WP MM BRIAN 1992-10-19 00:00:00 TS 11.6500 150.650 45 992 tokyo main 1588 1576 OOOO__________ jtwc_wp WP251992 11.5000 150.300 50 0 11.7000 151.100 3 45 992 0 9 120 120 0 11.8000 151.000 3 48 985 11.6000 150.200 TS 45 985 10 280
1992289N09171 1992 112 WP MM BRIAN 1992-10-19 03:00:00 TS 11.7180 150.183 main 1576 1570 PPPP__________ WP251992 11.5499 149.885 52 0 11.8073 150.692 3 45 991 0 9 120 120 11.8649 150.527 3 48 985 11.6500 149.627 TS 45 985 9 278
1992289N09171 1992 112 WP MM BRIAN 1992-10-19 06:00:00 TS 11.7750 149.750 45 990 tokyo main 1579 1573 OOOO__________ jtwc_wp WP251992 11.6000 149.500 55 0 11.9000 150.300 3 45 990 0 9 120 120 0 11.9000 150.100 3 48 985 11.7000 149.100 TS 45 985 9 279
1992289N09171 1992 112 WP MM BRIAN 1992-10-19 09:00:00 TS 11.8556 149.326 main 1582 1577 PPPP__________ WP251992 11.6999 149.100 55 0 11.9650 149.850 3 47 987 0 9 125 125 11.9574 149.685 3 48 985 11.7999 148.670 TS 45 985 8 281
1992289N09171 1992 112 WP MM BRIAN 1992-10-19 12:00:00 TS 11.9250 148.925 50 985 tokyo main 1577 1575 OOOO__________ jtwc_wp WP251992 11.8000 148.700 55 0 12.0000 149.400 4 50 985 0 9 130 130 0 12.0000 149.300 3 48 985 11.9000 148.300 TS 45 985 8 278
1992289N09171 1992 112 WP MM BRIAN 1992-10-19 15:00:00 TS 11.9574 148.541 main 1584 1582 PPPP__________ WP251992 11.8575 148.292 55 0 12.0074 148.992 4 50 985 0 9 130 130 12.0074 148.942 3 53 982 11.9575 147.935 TS 45 985 7 274
1992289N09171 1992 112 WP MM BRIAN 1992-10-19 18:00:00 TS 11.9750 148.175 50 985 tokyo main 1582 1580 OOOO__________ jtwc_wp WP251992 11.9000 147.900 55 0 12.0000 148.600 4 50 985 0 9 130 130 0 12.0000 148.600 3 58 980 12.0000 147.600 TS 45 985 7 273
1992289N09171 1992 112 WP MM BRIAN 1992-10-19 21:00:00 TS 11.9943 147.825 main 1580 1579 PPPP__________ WP251992 11.9425 147.535 55 0 11.9999 148.215 4 52 985 0 9 130 130 11.9924 148.265 3 58 980 12.0425 147.285 TS 42 987 7 274
1992289N09171 1992 112 WP MM BRIAN 1992-10-20 00:00:00 TS 12.0250 147.475 55 985 tokyo main 1579 1579 OOOO__________ jtwc_wp WP251992 12.0000 147.200 55 0 12.0000 147.800 4 55 985 9 30 30 9 130 130 0 12.0000 147.900 3 58 980 12.1000 147.000 TS 40 990 7 277
1992289N09171 1992 112 WP MM BRIAN 1992-10-20 03:00:00 TS 12.0800 147.098 main 1591 1591 PPPP__________ WP251992 12.0924 146.893 55 0 11.9926 147.292 4 55 985 9 30 30 9 130 130 12.0425 147.465 3 58 980 12.1925 146.742 TS 37 992 7 280
1992289N09171 1992 112 WP MM BRIAN 1992-10-20 06:00:00 TS 12.1500 146.725 55 985 tokyo main 1602 1591 OOOO__________ jtwc_wp WP251992 12.2000 146.600 55 0 12.0000 146.800 4 55 985 9 30 30 9 130 130 0 12.1000 147.000 3 58 980 12.3000 146.500 TS 35 995 7 281
1992289N09171 1992 112 WP MM BRIAN 1992-10-20 09:00:00 TS 12.2156 146.363 main 1602 1602 PPPP__________ WP251992 12.2850 146.300 57 0 12.0349 146.398 4 57 982 9 35 35 9 135 135 12.1501 146.505 3 58 980 12.3925 146.250 TS 40 992 7 283
1992289N09171 1992 112 WP MM BRIAN 1992-10-20 12:00:00 TS 12.3000 146.050 60 980 tokyo main 1614 1614 OOOO__________ jtwc_wp WP251992 12.4000 146.000 60 0 12.1000 146.100 4 60 980 9 40 40 9 140 140 0 12.2000 146.100 3 58 980 12.5000 146.000 TS 45 990 6 289
1992289N09171 1992 112 WP MM BRIAN 1992-10-20 15:00:00 TS 12.3949 145.830 main 1626 1626 PPPP__________ WP251992 12.5775 145.700 60 0 12.1624 145.935 4 60 980 9 40 40 9 140 140 12.2123 145.927 3 58 980 12.6275 145.757 TS 47 987 5 301
1992289N09171 1992 112 WP MM BRIAN 1992-10-20 18:00:00 TS 12.5500 145.625 60 980 tokyo main 1650 1639 OOOO__________ jtwc_wp WP251992 12.8000 145.400 60 0 12.3000 145.800 4 60 980 9 40 40 9 140 140 0 12.3000 145.800 3 58 980 12.8000 145.500 STS 50 985 6 311
1992289N09171 1992 112 WP MM BRIAN 1992-10-20 21:00:00 TS 12.7912 145.360 main 1674 1674 PPPP__________ WP251992 13.0425 145.100 62 0 12.5474 145.595 4 57 980 9 40 40 9 140 140 12.5400 145.537 3 58 980 13.0350 145.208 STS 52 982 8 314
1992289N09171 1992 112 WP MM BRIAN 1992-10-21 00:00:00 TS 13.1000 145.050 55 980 tokyo main 1711 1712 OOOO__________ jtwc_wp WP251992 13.3000 144.800 65 1 12.9000 145.300 4 55 980 9 40 40 9 140 140 0 12.9000 145.200 3 58 980 13.3000 144.900 STS 55 980 9 316
1992289N09171 1992 112 WP MM BRIAN 1992-10-21 03:00:00 TS 13.4368 144.712 main 1749 1749 PPPP__________ WP251992 13.5349 144.507 65 1 13.3425 144.895 4 55 980 9 35 35 9 140 140 13.3349 144.830 3 58 980 13.5349 144.615 STS 57 977 10 315
1992289N09171 1992 112 WP MM BRIAN 1992-10-21 06:00:00 TS 13.8000 144.325 55 980 tokyo main 1799 1799 OOOO__________ jtwc_wp WP251992 13.8000 144.200 65 1 13.8000 144.400 4 55 980 9 30 30 9 140 140 0 13.8000 144.400 3 58 980 13.8000 144.300 STS 60 975 11 311
1992289N09171 1992 112 WP MM BRIAN 1992-10-21 09:00:00 TS 14.1570 143.864 main 1850 1850 PPPP__________ WP251992 14.1350 143.857 65 1 14.1577 143.813 4 55 980 9 30 30 9 140 140 14.2077 143.878 3 58 977 14.1275 143.908 STS 60 975 11 310
1992289N09171 1992 112 WP MM BRIAN 1992-10-21 12:00:00 TS 14.5250 143.425 55 980 tokyo main 1892 1892 OOOO__________ jtwc_wp WP251992 14.5000 143.500 65 1 14.5000 143.300 4 55 980 9 30 30 9 140 140 0 14.6000 143.400 3 58 975 14.5000 143.500 STS 60 975 10 316
1992289N09171 1992 112 WP MM BRIAN 1992-10-21 15:00:00 TS 14.9011 143.122 main 1925 1909 PPPP__________ WP251992 14.8275 143.150 67 1 14.8847 143.070 4 57 977 9 35 35 9 150 150 14.9998 143.127 3 63 972 14.8924 143.142 STS 62 972 10 324
1992289N09171 1992 112 WP MM BRIAN 1992-10-21 18:00:00 TS 15.3000 142.850 60 975 tokyo main 1911 1876 OOOO__________ jtwc_wp WP251992 15.2000 142.800 70 1 15.3000 142.900 4 60 975 9 40 40 9 160 160 0 15.4000 142.900 4 68 970 15.3000 142.800 T 65 970 10 324
1992289N09171 1992 112 WP MM BRIAN 1992-10-21 21:00:00 TS 15.7113 142.504 main 1876 1850 PPPP__________ WP251992 15.6775 142.443 72 1 15.7351 142.550 4 62 972 9 50 50 9 180 180 15.7851 142.543 4 68 970 15.6473 142.479 T 70 965 11 322
1992289N09171 1992 112 WP MM BRIAN 1992-10-22 00:00:00 TS 16.1750 142.150 65 970 tokyo main 1855 1825 OOOO__________ jtwc_wp WP251992 16.2000 142.100 75 1 16.2000 142.200 5 65 970 9 60 60 9 200 200 0 16.2000 142.200 4 68 970 16.1000 142.100 T 75 960 12 328
1992289N09171 1992 112 WP MM BRIAN 1992-10-22 03:00:00 TS 16.7488 141.821 main 1825 1812 PPPP__________ WP251992 16.7074 141.792 77 1 16.7073 142.000 5 67 967 9 60 60 9 170 170 16.6924 141.992 4 68 970 16.8880 141.499 T 70 965 13 332
1992289N09171 1992 112 WP MM BRIAN 1992-10-22 06:00:00 TS 17.3000 141.525 70 965 tokyo main 1812 1801 OOOO__________ jtwc_wp WP251992 17.2000 141.500 80 1 17.2000 141.800 5 70 965 9 60 60 9 140 140 0 17.2000 141.800 4 68 970 17.6000 141.000 T 65 970 11 332
1992289N09171 1992 112 WP MM BRIAN 1992-10-22 09:00:00 TS 17.6774 141.293 main 1805 1786 PPPP__________ WP251992 17.6575 141.200 85 2 17.6000 141.480 5 72 962 9 65 65 9 145 145 17.6574 141.530 4 68 967 17.7947 140.962 T 65 970 9 328
1992289N09171 1992 112 WP MM BRIAN 1992-10-22 12:00:00 TS 18.0250 141.050 75 960 tokyo main 1786 1726 OOOO__________ jtwc_wp WP251992 18.1000 140.900 90 2 18.0000 141.100 5 75 960 9 70 70 9 150 150 0 18.1000 141.200 4 68 965 17.9000 141.000 T 65 970 10 325
1992289N09171 1992 112 WP MM BRIAN 1992-10-22 15:00:00 TS 18.4669 140.708 main 1717 1662 PPPP__________ WP251992 18.5500 140.600 92 2 18.4776 140.685 5 75 957 9 70 70 9 155 155 18.5351 140.800 4 72 962 18.3051 140.745 T 62 972 11 324
1992289N09171 1992 112 WP MM BRIAN 1992-10-22 18:00:00 TS 18.9500 140.350 75 955 tokyo main 1652 1598 OOOO__________ jtwc_wp WP251992 19.0000 140.300 95 2 19.0000 140.300 5 75 955 9 70 70 9 160 160 0 19.0000 140.400 4 77 960 18.8000 140.400 STS 60 975 12 327
1992289N09171 1992 112 WP MM BRIAN 1992-10-22 21:00:00 TS 19.4406 140.036 main 1592 1534 PPPP__________ WP251992 19.4425 139.992 95 2 19.5424 139.997 5 77 952 9 75 75 9 165 165 19.5275 140.055 4 77 957 19.2499 140.100 STS 57 975 11 332
1992289N09171 1992 112 WP MM BRIAN 1992-10-23 00:00:00 TS 19.9500 139.775 80 950 tokyo main 1524 1475 OOOO__________ jtwc_wp WP251992 19.9000 139.700 95 2 20.1000 139.800 5 80 950 9 80 80 9 170 170 0 20.1000 139.800 4 77 955 19.7000 139.800 STS 55 975 11 338
1992289N09171 1992 112 WP MM BRIAN 1992-10-23 03:00:00 TS 20.4712 139.588 main 1466 1407 PPPP__________ WP251992 20.3849 139.442 95 2 20.6499 139.734 5 80 950 9 80 80 9 170 170 20.7074 139.677 4 77 955 20.1425 139.500 STS 52 977 11 343
1992289N09171 1992 112 WP MM BRIAN 1992-10-23 06:00:00 TS 21.0000 139.425 80 950 tokyo main 1407 1349 OOOO__________ jtwc_wp WP251992 20.9000 139.200 95 2 21.2000 139.700 5 80 950 9 80 80 9 170 170 0 21.3000 139.600 4 77 955 20.6000 139.200 STS 50 980 11 342
1992289N09171 1992 112 WP MM BRIAN 1992-10-23 09:00:00 TS 21.5231 139.220 main 1349 1291 PPPP__________ WP251992 21.4275 138.950 92 2 21.7650 139.573 5 80 950 9 80 80 9 170 170 21.8225 139.457 4 77 957 21.0775 138.900 STS 50 980 11 339
1992289N09171 1992 112 WP MM BRIAN 1992-10-23 12:00:00 TS 22.0500 139.000 80 950 tokyo main 1282 1234 OOOO__________ jtwc_wp WP251992 22.0000 138.700 90 2 22.3000 139.400 5 80 950 9 80 80 9 170 170 0 22.3000 139.300 4 77 960 21.6000 138.600 STS 50 980 11 338
1992289N09171 1992 112 WP MM BRIAN 1992-10-23 15:00:00 TS 22.5631 138.773 main 1224 1167 PPPP__________ WP251992 22.6275 138.435 87 2 22.7425 139.207 5 77 955 9 70 70 9 165 165 22.7274 139.165 4 72 962 22.1550 138.285 STS 47 982 12 339
1992289N09171 1992 112 WP MM BRIAN 1992-10-23 18:00:00 TS 23.1250 138.550 75 960 tokyo main 1167 1095 OOOO__________ jtwc_wp WP251992 23.3000 138.200 85 2 23.2000 139.000 5 75 960 9 60 60 9 160 160 0 23.2000 139.000 4 68 965 22.8000 138.000 TS 45 985 13 341
1992289N09171 1992 112 WP MM BRIAN 1992-10-23 21:00:00 TS 23.7602 138.315 main 1086 1018 PPPP__________ WP251992 23.9775 137.983 80 1 23.7182 138.780 5 70 965 9 55 55 9 155 155 23.7901 138.765 4 68 967 23.5550 137.733 TS 42 985 14 345
1992289N09171 1992 112 WP MM BRIAN 1992-10-24 00:00:00 TS 24.5000 138.150 65 970 tokyo main 1018 930 OOOO__________ jtwc_wp WP251992 24.7000 137.900 75 1 24.4000 138.600 5 65 970 9 50 50 9 150 150 0 24.5000 138.500 4 68 970 24.4000 137.600 TS 40 985 16 352
1992289N09171 1992 112 WP MM BRIAN 1992-10-24 03:00:00 TS 25.3454 138.063 65 975 tokyo main 930 836 POPP__________ WP251992 25.4622 137.988 70 1 25.3000 138.500 5 65 975 9 50 50 9 150 150 0 25.3273 138.125 4 63 975 25.2921 137.638 TS 37 987 17 1
1992289N09171 1992 112 WP MM BRIAN 1992-10-24 06:00:00 TS 26.2267 138.167 65 975 tokyo main 836 759 OOOO__________ jtwc_wp WP251992 26.3000 138.300 65 1 26.2000 138.400 5 65 975 9 50 50 9 150 150 0 26.2000 138.000 3 58 980 26.2000 137.900 TS 35 990 18 15
1992289N09171 1992 112 WP MM BRIAN 1992-10-24 09:00:00 TS 27.0589 138.586 60 980 tokyo main 752 694 POPP__________ WP251992 27.1967 138.767 60 0 27.0000 138.700 4 60 980 9 40 40 9 140 140 0 26.9766 138.391 3 58 980 27.0658 138.385 TS 32 992 20 30
1992289N09171 1992 112 WP MM BRIAN 1992-10-24 12:00:00 TS 27.9615 139.308 60 980 tokyo main 688 649 OOOO__________ jtwc_wp WP251992 28.2000 139.500 55 0 27.9000 139.300 4 60 980 9 40 40 9 130 130 0 27.8000 139.200 3 58 980 27.9000 139.000 TD 30 995 25 39
1992289N09171 1992 112 WP MM BRIAN 1992-10-24 15:00:00 TS 28.9717 140.362 55 985 tokyo main 642 569 POP___________ WP251992 29.3700 140.421 50 0 28.8000 140.500 4 55 985 9 30 30 9 120 120 0 28.7452 140.167 3 53 982 TD 29 45
1992289N09171 1992 112 WP MM BRIAN 1992-10-24 18:00:00 TS 30.0333 141.667 50 990 tokyo main 571 531 OOO___________ jtwc_wp WP251992 30.5000 141.700 45 0 29.8000 141.800 4 50 990 0 9 120 120 0 29.8000 141.500 3 48 985 33 51
1992289N09171 1992 112 WP MM BRIAN 1992-10-24 21:00:00 TS 31.0872 143.355 45 992 tokyo main 534 531 POP___________ WP251992 31.4049 143.365 42 0 30.9000 143.500 3 45 992 0 9 110 110 0 30.9569 143.200 3 43 987 37 56
1992289N09171 1992 112 WP MM BRIAN 1992-10-25 00:00:00 TS 32.1000 145.240 40 994 tokyo main 562 562 OOO___________ jtwc_wp WP251992 32.1000 145.300 40 0 32.1000 145.200 3 40 994 0 9 110 110 0 32.1000 145.200 2 38 990 38 62
1992289N09171 1992 112 WP MM BRIAN 1992-10-25 03:00:00 TS 32.8736 147.265 main 664 664 PPP___________ WP251992 32.6299 147.258 40 0 33.1308 147.225 3 996 0 9 33.1040 147.318 2 38 992 37 70
1992289N09171 1992 112 WP MM BRIAN 1992-10-25 06:00:00 MX 33.4000 149.380 998 tokyo main 817 817 OOO___________ jtwc_wp WP251992 33.0000 149.300 40 0 34.0000 149.500 6 998 0 0 0 34.0000 149.500 2 38 995 35 83
1992289N09171 1992 112 WP MM BRIAN 1992-10-25 09:00:00 NR 33.2795 151.387 main 996 996 P_____________ WP251992 33.2795 151.387 37 0 6 0 0 2 34 88
1992289N09171 1992 112 WP MM BRIAN 1992-10-25 12:00:00 NR 33.5000 153.500 main 1175 O_____________ jtwc_wp WP251992 33.5000 153.500 35 0 35 83

Digital Typhoon Data and Search

About IBTrACS Database

This database is a web-friendly format of International Best Track Archive for Climate Stewardship (IBTrACS), a global best track data archive curated by NOAA dating back to 1842.

Updated: 2021-12-03